createdAt,value
2022-08-07T00:00:12.135Z,26.30
2022-08-07T00:02:39.998Z,26.50
2022-08-07T00:04:35.590Z,26.02
2022-08-07T00:06:51.048Z,26.01
2022-08-07T00:08:54.971Z,24.79
2022-08-07T00:10:57.394Z,26.04
2022-08-07T00:13:09.536Z,25.94
2022-08-07T00:15:37.812Z,26.03
2022-08-07T00:17:47.710Z,26.06
2022-08-07T00:20:01.040Z,25.76
2022-08-07T00:22:05.015Z,24.80
2022-08-07T00:24:08.744Z,26.38
2022-08-07T00:26:13.340Z,26.05
2022-08-07T00:28:21.985Z,23.98
2022-08-07T00:30:27.486Z,24.21
2022-08-07T00:32:30.147Z,24.75
2022-08-07T00:34:43.914Z,24.21
2022-08-07T00:36:46.587Z,25.08
2022-08-07T00:38:48.914Z,24.80
2022-08-07T00:40:53.483Z,24.75
2022-08-07T00:42:55.097Z,26.12
2022-08-07T00:44:56.676Z,25.50
2022-08-07T00:46:58.261Z,27.00
2022-08-07T00:49:02.054Z,25.69
2022-08-07T00:51:04.238Z,25.47
2022-08-07T00:53:05.877Z,25.68
2022-08-07T00:55:10.920Z,24.79
2022-08-07T00:57:14.396Z,25.75
2022-08-07T00:59:16.807Z,25.68
2022-08-07T01:01:22.513Z,25.79
2022-08-07T01:03:55.927Z,25.14
2022-08-07T01:05:51.621Z,25.31
2022-08-07T01:07:55.425Z,25.29
2022-08-07T01:10:06.321Z,25.76
2022-08-07T01:12:29.846Z,25.20
2022-08-07T01:14:32.425Z,24.68
2022-08-07T01:16:38.744Z,24.25
2022-08-07T01:18:45.093Z,26.82
2022-08-07T01:20:59.597Z,25.84
2022-08-07T01:23:12.350Z,25.39
2022-08-07T01:25:55.880Z,25.06
2022-08-07T01:27:37.984Z,25.41
2022-08-07T01:29:52.197Z,25.07
2022-08-07T01:31:54.327Z,25.58
2022-08-07T01:33:57.586Z,25.29
2022-08-07T01:36:06.345Z,27.08
2022-08-07T01:38:12.192Z,26.49
2022-08-07T01:40:16.267Z,27.63
2022-08-07T01:42:39.982Z,25.90
2022-08-07T01:44:40.831Z,28.75
2022-08-07T01:46:43.124Z,25.76
2022-08-07T01:48:46.497Z,28.90
2022-08-07T01:50:55.626Z,26.98
2022-08-07T01:52:58.925Z,28.61
2022-08-07T01:55:02.858Z,26.36
2022-08-07T01:57:08.596Z,25.70
2022-08-07T01:59:18.611Z,29.17
2022-08-07T02:02:02.053Z,26.13
2022-08-07T02:03:52.489Z,29.47
2022-08-07T02:05:59.928Z,29.37
2022-08-07T02:08:06.215Z,28.86
2022-08-07T02:10:14.326Z,27.80
2022-08-07T02:12:18.095Z,26.10
2022-08-07T02:14:40.473Z,25.52
2022-08-07T02:16:42.920Z,24.55
2022-08-07T02:18:46.972Z,27.54
2022-08-07T02:20:52.059Z,27.87
2022-08-07T02:23:02.103Z,25.43
2022-08-07T02:25:07.184Z,25.56
2022-08-07T02:27:21.252Z,28.97
2022-08-07T02:29:24.916Z,25.65
2022-08-07T02:31:29.559Z,26.25
2022-08-07T02:33:41.949Z,26.72
2022-08-07T02:36:30.671Z,29.70
2022-08-07T02:38:19.128Z,26.63
2022-08-07T02:40:35.171Z,26.38
2022-08-07T02:42:39.456Z,26.72
2022-08-07T02:44:46.503Z,29.83
2022-08-07T02:46:52.903Z,25.86
2022-08-07T02:48:55.014Z,30.24
2022-08-07T02:50:59.389Z,29.40
2022-08-07T02:53:06.534Z,29.33
2022-08-07T02:55:28.341Z,29.17
2022-08-07T02:57:44.084Z,27.93
2022-08-07T02:59:54.817Z,28.45
2022-08-07T03:01:57.877Z,29.19
2022-08-07T03:04:07.576Z,28.46
2022-08-07T03:06:16.512Z,28.27
2022-08-07T03:08:20.227Z,28.36
2022-08-07T03:10:32.427Z,28.42
2022-08-07T03:12:34.570Z,27.79
2022-08-07T03:14:38.954Z,28.46
2022-08-07T03:16:41.779Z,26.83
2022-08-07T03:18:44.082Z,27.75
2022-08-07T03:20:47.103Z,28.19
2022-08-07T03:22:50.539Z,28.05
2022-08-07T03:24:53.167Z,27.60
2022-08-07T03:26:59.779Z,24.73
2022-08-07T03:29:03.210Z,27.68
2022-08-07T03:31:07.232Z,27.67
2022-08-07T03:33:13.567Z,27.90
2022-08-07T03:35:26.240Z,27.32
2022-08-07T03:37:29.408Z,27.74
2022-08-07T03:39:59.922Z,24.76
2022-08-07T03:41:58.345Z,26.40
2022-08-07T03:44:02.989Z,27.76
2022-08-07T03:46:10.371Z,28.61
2022-08-07T03:48:22.816Z,27.43
2022-08-07T03:50:25.387Z,27.07
2022-08-07T03:52:31.864Z,27.63
2022-08-07T03:54:54.216Z,27.00
2022-08-07T03:57:03.739Z,27.31
2022-08-07T03:59:13.467Z,27.33
2022-08-07T04:01:18.145Z,27.09
2022-08-07T04:03:20.719Z,27.43
2022-08-07T04:05:23.987Z,27.11
2022-08-07T04:07:36.308Z,28.47
2022-08-07T04:09:50.220Z,28.95
2022-08-07T04:12:24.482Z,29.45
2022-08-07T04:14:37.430Z,27.62
2022-08-07T04:16:38.406Z,27.91
2022-08-07T04:18:59.316Z,30.17
2022-08-07T04:21:03.847Z,29.82
2022-08-07T04:23:09.442Z,30.30
2022-08-07T04:25:22.609Z,27.60
2022-08-07T04:27:26.360Z,29.12
2022-08-07T04:29:40.311Z,30.59
2022-08-07T04:32:02.913Z,29.44
2022-08-07T04:34:16.778Z,28.88
2022-08-07T04:36:26.066Z,29.11
2022-08-07T04:38:28.211Z,29.17
2022-08-07T04:40:32.263Z,29.99
2022-08-07T04:42:34.202Z,29.59
2022-08-07T04:44:37.502Z,29.58
2022-08-07T04:47:08.492Z,29.00
2022-08-07T04:49:18.012Z,30.10
2022-08-07T04:51:27.306Z,30.45
2022-08-07T04:54:01.174Z,29.62
2022-08-07T04:58:11.902Z,30.03
2022-08-07T04:59:17.095Z,29.10
2022-08-07T05:01:13.375Z,30.22
2022-08-07T05:03:59.552Z,30.23
2022-08-07T05:05:51.694Z,31.41
2022-08-07T05:08:01.125Z,30.39
2022-08-07T05:10:06.081Z,30.77
2022-08-07T05:12:10.408Z,31.45
2022-08-07T05:14:52.379Z,30.04
2022-08-07T05:16:44.153Z,31.18
2022-08-07T05:18:53.042Z,30.08
2022-08-07T05:21:00.390Z,30.84
2022-08-07T05:23:15.298Z,29.47
2022-08-07T05:25:26.335Z,28.96
2022-08-07T05:28:02.041Z,29.72
2022-08-07T05:30:02.379Z,29.97
2022-08-07T05:32:05.033Z,30.14
2022-08-07T05:34:13.224Z,29.61
2022-08-07T05:36:22.514Z,29.41
2022-08-07T05:38:59.510Z,28.96
2022-08-07T05:40:55.431Z,29.20
2022-08-07T05:43:00.990Z,28.81
2022-08-07T05:45:25.996Z,29.23
2022-08-07T05:47:38.146Z,29.25
2022-08-07T05:49:51.720Z,28.88
2022-08-07T05:51:53.390Z,28.96
2022-08-07T05:54:08.630Z,28.65
2022-08-07T05:56:17.918Z,28.49
2022-08-07T05:58:35.959Z,28.53
2022-08-07T06:00:39.897Z,28.59
2022-08-07T06:02:45.102Z,29.46
2022-08-07T06:04:55.137Z,28.25
2022-08-07T06:07:03.727Z,28.86
2022-08-07T06:09:06.926Z,28.78
2022-08-07T06:11:09.342Z,27.59
2022-08-07T06:13:13.713Z,29.33
2022-08-07T06:15:20.117Z,28.51
2022-08-07T06:17:23.044Z,29.42
2022-08-07T06:19:52.026Z,28.35
2022-08-07T06:22:16.585Z,28.80
2022-08-07T06:24:38.409Z,27.85
2022-08-07T06:26:42.072Z,28.49
2022-08-07T06:28:48.885Z,27.74
2022-08-07T06:30:53.032Z,27.64
2022-08-07T06:32:54.703Z,27.72
2022-08-07T06:34:56.317Z,27.55
2022-08-07T06:36:59.280Z,27.07
2022-08-07T06:40:15.684Z,26.19
2022-08-07T06:42:02.015Z,27.38
2022-08-07T06:44:01.307Z,26.99
2022-08-07T06:46:12.188Z,26.93
2022-08-07T06:48:14.381Z,26.64
2022-08-07T06:50:19.061Z,27.03
2022-08-07T06:52:31.473Z,26.75
2022-08-07T06:55:32.248Z,26.75
2022-08-07T06:57:00.753Z,26.52
2022-08-07T07:00:12.996Z,26.14
2022-08-07T07:01:24.356Z,26.45
2022-08-07T07:03:48.741Z,26.41
2022-08-07T07:06:05.080Z,26.46
2022-08-07T07:08:12.473Z,26.10
2022-08-07T07:10:28.177Z,26.60
2022-08-07T07:12:41.705Z,26.45
2022-08-07T07:14:55.579Z,25.59
2022-08-07T07:17:02.923Z,26.23
2022-08-07T07:19:34.042Z,25.94
2022-08-07T07:22:05.308Z,26.34
2022-08-07T07:24:08.528Z,26.34
2022-08-07T07:26:32.658Z,26.21
2022-08-07T07:29:40.354Z,25.89
2022-08-07T07:31:08.435Z,26.09
2022-08-07T07:33:12.416Z,25.89
2022-08-07T07:35:16.798Z,25.11
2022-08-07T07:37:44.192Z,25.78
2022-08-07T07:39:52.565Z,25.34
2022-08-07T07:42:13.207Z,27.53
2022-08-07T07:44:21.381Z,36.18
2022-08-07T07:46:38.000Z,31.80
2022-08-07T07:48:59.867Z,34.33
2022-08-07T07:51:12.322Z,35.04
2022-08-07T07:53:25.801Z,32.37
2022-08-07T07:55:37.704Z,36.67
2022-08-07T07:57:53.413Z,30.41
2022-08-07T07:59:56.859Z,30.97
2022-08-07T08:02:10.640Z,30.04
2022-08-07T08:04:13.261Z,29.70
2022-08-07T08:06:17.899Z,31.04
2022-08-07T08:08:35.374Z,31.95
2022-08-07T08:10:40.367Z,33.37
2022-08-07T08:12:52.413Z,33.85
2022-08-07T08:15:00.832Z,33.43
2022-08-07T08:17:55.534Z,31.51
2022-08-07T08:20:19.556Z,30.55
2022-08-07T08:21:55.983Z,30.90
2022-08-07T08:24:07.347Z,33.86
2022-08-07T08:26:31.050Z,33.00
2022-08-07T08:28:44.806Z,32.41
2022-08-07T08:30:55.811Z,32.97
2022-08-07T08:33:01.830Z,31.24
2022-08-07T08:35:07.997Z,32.44
2022-08-07T08:37:59.585Z,32.33
2022-08-07T08:39:39.624Z,30.61
2022-08-07T08:42:03.599Z,32.39
2022-08-07T08:44:14.018Z,30.46
2022-08-07T08:46:22.079Z,29.84
2022-08-07T08:48:36.379Z,30.88
2022-08-07T08:50:45.029Z,29.99
2022-08-07T08:52:53.884Z,29.87
2022-08-07T08:55:04.683Z,30.58
2022-08-07T08:57:21.806Z,31.62
2022-08-07T08:59:28.205Z,29.68
2022-08-07T09:01:44.161Z,34.23
2022-08-07T09:03:58.516Z,31.14
2022-08-07T09:06:06.197Z,31.43
2022-08-07T09:08:28.185Z,30.65
2022-08-07T09:10:37.899Z,32.40
2022-08-07T09:13:09.436Z,30.79
2022-08-07T09:16:22.697Z,31.55
2022-08-07T09:17:59.226Z,30.63
2022-08-07T09:20:34.758Z,31.56
2022-08-07T09:24:33.019Z,30.71
2022-08-07T09:25:21.538Z,31.43
2022-08-07T09:27:31.300Z,31.99
2022-08-07T09:30:08.533Z,30.87
2022-08-07T09:32:21.436Z,30.55
2022-08-07T09:34:29.004Z,30.17
2022-08-07T09:36:37.158Z,30.29
2022-08-07T09:38:50.237Z,30.61
2022-08-07T09:41:06.700Z,30.65
2022-08-07T09:43:20.184Z,31.64
2022-08-07T09:47:25.812Z,31.01
2022-08-07T09:48:45.352Z,30.27
2022-08-07T09:51:14.601Z,31.05
2022-08-07T09:53:40.598Z,30.09
2022-08-07T09:56:05.141Z,29.94
2022-08-07T09:58:37.503Z,29.50
2022-08-07T10:00:57.823Z,29.60
2022-08-07T10:04:05.462Z,29.65
2022-08-07T10:06:03.454Z,29.56
2022-08-07T10:08:26.802Z,29.46
2022-08-07T10:13:54.654Z,26.69
2022-08-07T10:16:09.140Z,27.06
2022-08-07T10:18:27.954Z,28.66
2022-08-07T10:20:38.971Z,28.47
2022-08-07T10:22:57.534Z,26.87
2022-08-07T10:25:22.656Z,27.84
2022-08-07T10:27:53.394Z,24.99
2022-08-07T10:30:06.443Z,25.85
2022-08-07T10:32:36.855Z,27.94
2022-08-07T10:35:09.154Z,27.39
2022-08-07T10:37:48.690Z,26.37
2022-08-07T10:40:09.054Z,28.17
2022-08-07T10:42:31.191Z,23.81
2022-08-07T10:44:45.601Z,24.19
2022-08-07T10:46:54.282Z,24.07
2022-08-07T10:49:06.052Z,22.69
2022-08-07T10:51:16.856Z,23.42
2022-08-07T10:53:44.037Z,26.41
2022-08-07T10:55:53.499Z,25.54
2022-08-07T10:58:05.451Z,28.13
2022-08-07T11:00:09.218Z,27.78
2022-08-07T11:02:33.513Z,27.76
2022-08-07T11:04:52.074Z,27.97
2022-08-07T11:07:02.945Z,27.05
2022-08-07T11:09:11.482Z,28.01
2022-08-07T11:11:20.971Z,27.38
2022-08-07T11:14:42.534Z,23.78
2022-08-07T11:15:55.482Z,22.77
2022-08-07T11:18:03.627Z,23.76
2022-08-07T11:20:13.782Z,24.72
2022-08-07T11:22:33.264Z,25.35
2022-08-07T11:24:53.308Z,25.32
2022-08-07T11:27:01.944Z,24.71
2022-08-07T11:29:22.352Z,25.27
2022-08-07T11:31:35.468Z,26.54
2022-08-07T11:33:53.769Z,22.84
2022-08-07T11:36:13.469Z,26.43
2022-08-07T11:38:21.301Z,25.96
2022-08-07T11:40:35.902Z,26.86
2022-08-07T11:42:54.161Z,25.75
2022-08-07T11:45:09.631Z,24.97
2022-08-07T11:47:39.191Z,24.39
2022-08-07T11:50:30.986Z,24.66
2022-08-07T11:52:49.703Z,24.06
2022-08-07T11:55:13.188Z,22.90
2022-08-07T11:57:59.969Z,24.23
2022-08-07T12:00:10.213Z,21.87
2022-08-07T12:02:30.702Z,24.68
2022-08-07T12:04:55.387Z,24.34
2022-08-07T12:07:07.956Z,23.89
2022-08-07T12:09:23.787Z,23.68
2022-08-07T12:11:32.211Z,23.25
2022-08-07T12:13:45.011Z,23.23
2022-08-07T12:16:06.795Z,23.02
2022-08-07T12:18:16.105Z,22.94
2022-08-07T12:20:32.336Z,22.50
2022-08-07T12:22:56.392Z,22.20
2022-08-07T12:25:07.808Z,22.08
2022-08-07T12:27:16.476Z,21.68
2022-08-07T12:29:37.628Z,21.24
2022-08-07T12:32:01.458Z,20.91
2022-08-07T12:34:11.174Z,19.70
2022-08-07T12:36:15.304Z,20.30
2022-08-07T12:38:29.472Z,20.14
2022-08-07T12:40:47.962Z,20.38
2022-08-07T12:42:52.687Z,19.73
2022-08-07T12:45:04.671Z,20.03
2022-08-07T12:47:21.757Z,17.97
2022-08-07T12:49:48.939Z,18.11
2022-08-07T12:52:13.842Z,17.54
2022-08-07T12:54:37.998Z,17.94
2022-08-07T12:56:51.322Z,16.90
2022-08-07T12:58:59.577Z,17.68
2022-08-07T13:01:08.700Z,17.66
2022-08-07T13:03:53.615Z,14.46
2022-08-07T13:06:03.818Z,17.31
2022-08-07T13:08:43.572Z,16.22
2022-08-07T13:10:59.819Z,15.56
2022-08-07T13:13:48.133Z,14.63
2022-08-07T13:15:50.931Z,15.66
2022-08-07T13:18:03.320Z,16.58
2022-08-07T13:20:12.128Z,16.64
2022-08-07T13:22:27.703Z,15.53
2022-08-07T13:24:43.941Z,13.34
2022-08-07T13:27:03.628Z,15.08
2022-08-07T13:29:14.038Z,15.66
2022-08-07T13:31:22.698Z,13.79
2022-08-07T13:34:30.715Z,16.18
2022-08-07T13:36:00.932Z,16.29
2022-08-07T13:38:13.853Z,16.27
2022-08-07T13:40:35.675Z,15.24
2022-08-07T13:42:45.957Z,16.04
2022-08-07T13:45:20.952Z,13.77
2022-08-07T13:47:21.732Z,15.27
2022-08-07T13:50:33.009Z,14.92
2022-08-07T13:52:22.999Z,14.70
2022-08-07T13:54:22.494Z,15.05
2022-08-07T13:56:35.297Z,15.33
2022-08-07T13:58:56.339Z,15.53
2022-08-07T14:01:09.018Z,13.75
2022-08-07T14:03:13.803Z,12.96
2022-08-07T14:05:22.084Z,13.67
2022-08-07T14:07:28.652Z,14.33
2022-08-07T14:10:02.693Z,13.51
2022-08-07T14:12:00.398Z,12.32
2022-08-07T14:14:04.896Z,14.62
2022-08-07T14:16:15.274Z,13.85
2022-08-07T14:18:28.675Z,15.72
2022-08-07T14:20:42.160Z,14.98
2022-08-07T14:22:48.735Z,16.86
2022-08-07T14:24:54.168Z,14.91
2022-08-07T14:26:59.201Z,17.85
2022-08-07T14:30:05.757Z,17.92
2022-08-07T14:31:42.691Z,18.40
2022-08-07T14:33:52.083Z,18.94
2022-08-07T14:35:56.201Z,17.46
2022-08-07T14:38:06.075Z,18.92
2022-08-07T14:40:27.088Z,19.01
2022-08-07T14:42:33.658Z,19.36
2022-08-07T14:44:37.071Z,18.40
2022-08-07T14:46:52.014Z,19.77
2022-08-07T14:49:56.098Z,20.22
2022-08-07T14:52:04.724Z,20.43
2022-08-07T14:54:09.832Z,20.83
2022-08-07T14:56:15.572Z,21.35
2022-08-07T14:58:35.363Z,20.54
2022-08-07T15:00:39.444Z,19.88
2022-08-07T15:02:44.680Z,20.64
2022-08-07T15:05:01.636Z,21.18
2022-08-07T15:07:47.438Z,20.35
2022-08-07T15:09:59.136Z,21.12
2022-08-07T15:12:10.064Z,21.43
2022-08-07T15:14:30.603Z,21.42
2022-08-07T15:16:38.734Z,21.31
2022-08-07T15:19:01.332Z,20.35
2022-08-07T15:21:08.358Z,19.81
2022-08-07T15:25:56.238Z,20.00
2022-08-07T15:28:33.040Z,21.01
2022-08-07T15:30:24.929Z,17.34
2022-08-07T15:32:39.841Z,21.58
2022-08-07T15:34:56.984Z,22.23
2022-08-07T15:37:06.763Z,22.46
2022-08-07T15:39:10.774Z,21.21
2022-08-07T15:41:24.074Z,21.71
2022-08-07T15:43:55.614Z,18.14
2022-08-07T15:46:32.348Z,17.90
2022-08-07T15:49:03.853Z,17.68
2022-08-07T15:51:10.064Z,17.50
2022-08-07T15:53:52.216Z,20.53
2022-08-07T15:56:02.776Z,21.25
2022-08-07T15:58:11.681Z,19.63
2022-08-07T16:00:33.628Z,20.80
2022-08-07T16:02:40.408Z,20.50
2022-08-07T16:04:44.035Z,17.65
2022-08-07T16:06:52.457Z,17.33
2022-08-07T16:09:01.172Z,21.02
2022-08-07T16:11:27.221Z,22.08
2022-08-07T16:14:03.089Z,19.04
2022-08-07T16:16:47.768Z,19.89
2022-08-07T16:18:50.885Z,19.86
2022-08-07T16:21:56.910Z,22.77
2022-08-07T16:23:58.322Z,19.15
2022-08-07T16:26:08.154Z,21.57
2022-08-07T16:30:09.076Z,20.86
2022-08-07T16:30:53.747Z,22.34
2022-08-07T16:34:02.959Z,22.50
2022-08-07T16:35:59.413Z,22.68
2022-08-07T16:38:15.796Z,22.79
2022-08-07T16:41:01.501Z,22.78
2022-08-07T16:43:18.646Z,22.77
2022-08-07T16:46:10.994Z,23.02
2022-08-07T16:50:20.671Z,23.00
2022-08-07T16:52:02.007Z,23.03
2022-08-07T16:54:32.913Z,23.26
2022-08-07T16:56:49.802Z,19.23
2022-08-07T16:59:14.329Z,22.45
2022-08-07T17:01:41.230Z,21.46
2022-08-07T17:03:59.509Z,22.43
2022-08-07T17:06:31.360Z,22.67
2022-08-07T17:09:04.249Z,23.07
2022-08-07T17:11:07.192Z,22.20
2022-08-07T17:14:19.167Z,23.53
2022-08-07T17:16:12.148Z,23.38
2022-08-07T17:18:17.868Z,23.31
2022-08-07T17:20:31.012Z,20.25
2022-08-07T17:22:38.114Z,22.90
2022-08-07T17:24:55.368Z,19.90
2022-08-07T17:27:02.808Z,20.41
2022-08-07T17:30:12.374Z,23.10
2022-08-07T17:32:03.169Z,21.77
2022-08-07T17:34:33.121Z,19.85
2022-08-07T17:36:57.634Z,23.03
2022-08-07T17:39:10.546Z,21.52
2022-08-07T17:42:04.182Z,23.39
2022-08-07T17:44:02.822Z,23.61
2022-08-07T17:46:15.324Z,23.79
2022-08-07T17:48:31.032Z,21.13
2022-08-07T17:50:47.101Z,23.62
2022-08-07T17:52:55.228Z,23.87
2022-08-07T17:55:05.486Z,23.87
2022-08-07T17:57:19.567Z,22.95
2022-08-07T17:59:35.976Z,20.54
2022-08-07T18:01:48.412Z,23.20
2022-08-07T18:04:16.403Z,24.01
2022-08-07T18:06:38.516Z,24.07
2022-08-07T18:09:01.052Z,24.16
2022-08-07T18:12:08.249Z,24.23
2022-08-07T18:13:44.788Z,23.69
2022-08-07T18:16:03.611Z,23.83
2022-08-07T18:18:46.500Z,24.10
2022-08-07T18:21:08.595Z,23.50
2022-08-07T18:23:05.946Z,24.26
2022-08-07T18:25:40.084Z,24.40
2022-08-07T18:28:06.334Z,24.52
2022-08-07T18:30:31.631Z,24.30
2022-08-07T18:32:46.354Z,24.33
2022-08-07T18:35:09.002Z,24.08
2022-08-07T18:38:57.225Z,24.30
2022-08-07T18:40:07.535Z,24.34
2022-08-07T18:42:20.803Z,24.54
2022-08-07T18:44:45.950Z,24.19
2022-08-07T18:47:05.608Z,23.27
2022-08-07T18:50:32.921Z,24.06
2022-08-07T18:52:33.635Z,24.54
2022-08-07T18:54:31.236Z,24.37
2022-08-07T18:56:58.315Z,24.38
2022-08-07T18:59:47.431Z,24.23
2022-08-07T19:02:17.943Z,22.69
2022-08-07T19:04:13.233Z,23.70
2022-08-07T19:06:33.868Z,24.02
2022-08-07T19:08:49.527Z,23.82
2022-08-07T19:11:36.033Z,23.89
2022-08-07T19:13:38.061Z,24.69
2022-08-07T19:16:05.270Z,24.42
2022-08-07T19:18:14.516Z,24.00
2022-08-07T19:20:29.833Z,24.54
2022-08-07T19:22:40.298Z,24.71
2022-08-07T19:24:47.985Z,24.46
2022-08-07T19:27:16.659Z,22.75
2022-08-07T19:31:05.119Z,21.75
2022-08-07T19:32:10.832Z,21.79
2022-08-07T19:34:11.878Z,21.56
2022-08-07T19:36:16.956Z,22.63
2022-08-07T19:38:34.075Z,24.67
2022-08-07T19:40:50.675Z,24.96
2022-08-07T19:42:55.402Z,22.94
2022-08-07T19:45:00.536Z,24.76
2022-08-07T19:47:14.470Z,21.64
2022-08-07T19:49:18.972Z,22.84
2022-08-07T19:51:52.736Z,24.82
2022-08-07T19:54:29.946Z,24.86
2022-08-07T19:57:52.182Z,22.35
2022-08-07T19:58:54.168Z,21.29
2022-08-07T20:00:57.770Z,22.98
2022-08-07T20:03:01.769Z,23.66
2022-08-07T20:05:07.905Z,23.05
2022-08-07T20:07:11.737Z,21.46
2022-08-07T20:10:34.082Z,22.00
2022-08-07T20:12:22.912Z,22.78
2022-08-07T20:14:03.148Z,22.06
2022-08-07T20:16:32.115Z,22.85
2022-08-07T20:18:34.572Z,22.53
2022-08-07T20:20:38.140Z,23.54
2022-08-07T20:22:45.223Z,22.31
2022-08-07T20:24:52.536Z,22.80
2022-08-07T20:26:58.593Z,24.23
2022-08-07T20:29:10.656Z,24.55
2022-08-07T20:31:27.324Z,23.85
2022-08-07T20:33:38.273Z,24.03
2022-08-07T20:35:54.358Z,22.65
2022-08-07T20:38:06.571Z,24.63
2022-08-07T20:40:31.195Z,22.61
2022-08-07T20:42:37.272Z,22.21
2022-08-07T20:44:45.473Z,23.69
2022-08-07T20:47:05.886Z,23.22
2022-08-07T20:49:59.425Z,22.95
2022-08-07T20:51:35.945Z,22.98
2022-08-07T20:54:04.101Z,22.24
2022-08-07T20:56:02.526Z,23.38
2022-08-07T20:58:12.018Z,22.42
2022-08-07T21:00:22.374Z,23.17
2022-08-07T21:02:28.048Z,23.09
2022-08-07T21:04:34.109Z,23.65
2022-08-07T21:06:37.988Z,23.48
2022-08-07T21:08:46.695Z,22.65
2022-08-07T21:10:50.615Z,22.49
2022-08-07T21:12:56.660Z,22.35
2022-08-07T21:15:02.940Z,22.30
2022-08-07T21:18:17.525Z,22.82
2022-08-07T21:19:51.856Z,23.69
2022-08-07T21:21:57.732Z,22.85
2022-08-07T21:24:07.060Z,23.56
2022-08-07T21:26:30.857Z,25.76
2022-08-07T21:28:48.497Z,24.88
2022-08-07T21:31:02.417Z,24.17
2022-08-07T21:33:16.497Z,22.89
2022-08-07T21:35:34.622Z,23.38
2022-08-07T21:37:58.020Z,24.73
2022-08-07T21:40:08.606Z,24.76
2022-08-07T21:42:42.518Z,24.52
2022-08-07T21:44:53.165Z,22.43
2022-08-07T21:46:59.960Z,23.61
2022-08-07T21:49:14.476Z,25.91
2022-08-07T21:51:32.037Z,23.80
2022-08-07T21:53:46.535Z,22.41
2022-08-07T21:56:03.141Z,23.96
2022-08-07T21:58:07.862Z,23.01
2022-08-07T22:00:23.109Z,23.32
2022-08-07T22:02:34.408Z,26.80
2022-08-07T22:04:42.416Z,24.64
2022-08-07T22:07:03.263Z,25.48
2022-08-07T22:09:08.180Z,22.48
2022-08-07T22:11:14.201Z,23.10
2022-08-07T22:13:16.535Z,23.85
2022-08-07T22:16:39.713Z,25.87
2022-08-07T22:17:53.443Z,23.87
2022-08-07T22:20:10.836Z,24.56
2022-08-07T22:22:34.267Z,27.10
2022-08-07T22:24:55.165Z,26.80
2022-08-07T22:27:01.869Z,24.38
2022-08-07T22:29:13.785Z,26.20
2022-08-07T22:31:45.286Z,25.61
2022-08-07T22:33:56.205Z,23.15
2022-08-07T22:36:04.500Z,23.45
2022-08-07T22:38:13.916Z,24.18
2022-08-07T22:40:28.376Z,25.93
2022-08-07T22:42:35.312Z,26.71
2022-08-07T22:44:57.896Z,24.17
2022-08-07T22:47:28.351Z,22.95
2022-08-07T22:49:54.090Z,26.20
2022-08-07T22:52:36.920Z,26.11
2022-08-07T22:55:17.460Z,24.46
2022-08-07T22:57:49.949Z,24.67
2022-08-07T22:59:58.047Z,23.07
2022-08-07T23:02:07.554Z,25.06
2022-08-07T23:04:30.833Z,23.82
2022-08-07T23:06:58.987Z,23.56
2022-08-07T23:10:01.174Z,24.63
2022-08-07T23:11:51.342Z,26.06
2022-08-07T23:14:24.080Z,24.44
2022-08-07T23:16:46.470Z,24.29
2022-08-07T23:19:02.516Z,25.29
2022-08-07T23:21:29.858Z,26.30
2022-08-07T23:24:06.491Z,25.10
2022-08-07T23:26:23.336Z,24.03
2022-08-07T23:28:54.447Z,26.90
2022-08-07T23:31:18.781Z,27.10
2022-08-07T23:34:34.557Z,27.37
2022-08-07T23:36:28.964Z,27.13
2022-08-07T23:38:54.721Z,24.95
2022-08-07T23:41:08.942Z,24.45
2022-08-07T23:43:48.581Z,24.16
2022-08-07T23:46:10.824Z,25.15
2022-08-07T23:48:28.930Z,25.18
2022-08-07T23:50:45.162Z,25.01
2022-08-07T23:53:06.148Z,25.16
2022-08-07T23:55:52.141Z,24.43
2022-08-07T23:57:44.018Z,24.77
